La Grace — OL5614 — position and weather

sailwx.info

Track history (hours):
 
Tides and Currents Weather Stations Pressure Air Temp Water Temp Dewpoint Dewpoint Depression Visibility Wind Speed Wind Dir Waves Ship Positions

La Grace

Last reported at 2017-Oct-19 05:01 UTC. Time now 2017-Oct-19 05:42 UTC.
Position N 38°54' E 001°26'.

Length 23 m.

Type: Sailing vessel. MMSI: 270467000.

Date/timePositionNaut miles runAvg speedWind from/ knotsBaromVisibWave heightAir tempDewpointWater temp
2017-Oct-19 05:01N 38°54' E 001°26'0 0.0
2017-Oct-19 01:08N 38°54' E 001°26'1 5.5
2017-Oct-19 01:00N 38°53' E 001°26'  
2017-Oct-16 06:49N 39°27' E 002°30'1 3.4
2017-Oct-16 06:27N 39°27' E 002°32'1 2.9
2017-Oct-16 06:00N 39°28' E 002°33'1 3.0
2017-Oct-16 05:30N 39°30' E 002°33'1 0.1
2017-Oct-15 14:39N 39°31' E 002°33'4 6.4
2017-Oct-15 14:00N 39°32' E 002°38'2 4.0
2017-Oct-15 13:30N 39°33' E 002°40'0 0.0
2017-Oct-15 13:00N 39°33' E 002°40'0 0.0
2017-Oct-15 12:30N 39°33' E 002°40'0 0.0
2017-Oct-15 12:00N 39°33' E 002°40'0 0.1
2017-Oct-15 11:30N 39°33' E 002°40'0 0.0
2017-Oct-15 11:00N 39°33' E 002°40'0 0.0
2017-Oct-15 10:30N 39°33' E 002°40'0 0.0
2017-Oct-15 10:00N 39°33' E 002°40'0 0.0
2017-Oct-15 09:30N 39°33' E 002°40'0 0.0
2017-Oct-15 09:00N 39°33' E 002°40'0 0.0
2017-Oct-15 08:30N 39°33' E 002°40'1 1.6
2017-Oct-15 08:00N 39°34' E 002°39'0 0.0
2017-Oct-15 07:30N 39°34' E 002°39'0 0.0
2017-Oct-15 07:00N 39°34' E 002°39'0 0.0
2017-Oct-15 06:27N 39°34' E 002°39'0 0.0
2017-Oct-15 06:00N 39°34' E 002°39'0 0.0
2017-Oct-15 05:30N 39°34' E 002°39'0 0.0
2017-Oct-15 04:59N 39°34' E 002°39'0 0.0
2017-Oct-15 04:29N 39°34' E 002°39'0 0.0
2017-Oct-15 03:59N 39°34' E 002°39'0 0.0
2017-Oct-15 03:29N 39°34' E 002°39'0 0.0
2017-Oct-15 02:59N 39°34' E 002°39'0 0.0
2017-Oct-15 02:29N 39°34' E 002°39'0 0.0
2017-Oct-15 01:59N 39°34' E 002°39'0 0.0
2017-Oct-15 01:29N 39°34' E 002°39'0 0.0
2017-Oct-15 00:59N 39°34' E 002°39'0 0.0
2017-Oct-15 00:28N 39°34' E 002°39'0 0.0
2017-Oct-14 23:58N 39°34' E 002°39'0 0.0
2017-Oct-14 23:28N 39°34' E 002°39'0 0.0
2017-Oct-14 22:58N 39°34' E 002°39'0 0.0
2017-Oct-14 22:28N 39°34' E 002°39'0 0.0
2017-Oct-14 21:58N 39°34' E 002°39'0 0.0
2017-Oct-14 21:28N 39°34' E 002°39'0 0.0
2017-Oct-14 20:58N 39°34' E 002°39'0 0.0
2017-Oct-14 20:30N 39°34' E 002°39'0 0.0
2017-Oct-14 20:00N 39°34' E 002°39'0 0.0
2017-Oct-14 19:30N 39°34' E 002°39'0 0.0
2017-Oct-14 19:00N 39°34' E 002°39'0 0.0
2017-Oct-14 18:30N 39°34' E 002°39'0 0.0
2017-Oct-14 18:00N 39°34' E 002°39'0 0.0
2017-Oct-14 17:30N 39°34' E 002°39'0 0.0
2017-Oct-14 16:59N 39°34' E 002°39'0 0.0
2017-Oct-14 16:30N 39°34' E 002°39'0 0.0
2017-Oct-14 15:59N 39°34' E 002°39'0 0.0
2017-Oct-14 15:26N 39°34' E 002°39'0 0.0
2017-Oct-14 14:59N 39°34' E 002°39'0 0.0
2017-Oct-14 14:29N 39°34' E 002°39'0 0.0
2017-Oct-14 13:59N 39°34' E 002°39'0 0.0
2017-Oct-14 13:29N 39°34' E 002°39'0 0.0
2017-Oct-14 12:59N 39°34' E 002°39'0 0.0
2017-Oct-14 12:29N 39°34' E 002°39'0 0.0
2017-Oct-14 11:59N 39°34' E 002°39'0 0.0
2017-Oct-14 11:29N 39°34' E 002°39'0 0.0
2017-Oct-14 10:59N 39°34' E 002°39'0 0.0
2017-Oct-14 10:29N 39°34' E 002°39'0 0.0
2017-Oct-14 09:59N 39°34' E 002°39'0 0.0
2017-Oct-14 09:29N 39°34' E 002°39'0 0.0
2017-Oct-14 08:59N 39°34' E 002°39'0 0.0
2017-Oct-14 08:29N 39°34' E 002°39'0 0.0
2017-Oct-14 07:59N 39°34' E 002°39'0 0.0
2017-Oct-14 07:29N 39°34' E 002°39'0 0.0
2017-Oct-14 06:59N 39°34' E 002°39'0 0.0
2017-Oct-14 06:29N 39°34' E 002°39'0 0.0
2017-Oct-14 05:59N 39°34' E 002°39'0 0.0
2017-Oct-14 05:29N 39°34' E 002°39'0 0.0
2017-Oct-14 04:59N 39°34' E 002°39'0 0.0
2017-Oct-14 04:29N 39°34' E 002°39'0 0.0
2017-Oct-14 03:59N 39°34' E 002°39'0 0.0
2017-Oct-14 03:29N 39°34' E 002°39'0 0.0
2017-Oct-14 02:59N 39°34' E 002°39'0 0.0
2017-Oct-14 02:29N 39°34' E 002°39'0 0.0
2017-Oct-14 01:59N 39°34' E 002°39'0 0.0
2017-Oct-14 01:29N 39°34' E 002°39'0 0.0
2017-Oct-14 00:59N 39°34' E 002°39'0 0.0
2017-Oct-14 00:29N 39°34' E 002°39'0 0.0
2017-Oct-13 23:59N 39°34' E 002°39'0 0.0
2017-Oct-13 23:29N 39°34' E 002°39'0 0.0
2017-Oct-13 22:59N 39°34' E 002°39'0 0.0
2017-Oct-13 22:29N 39°34' E 002°39'0 0.0
2017-Oct-13 21:59N 39°34' E 002°39'0 0.0
2017-Oct-13 21:29N 39°34' E 002°39'0 0.0
2017-Oct-13 20:59N 39°34' E 002°39'0 0.0
2017-Oct-13 20:29N 39°34' E 002°39'0 0.0
2017-Oct-13 19:59N 39°34' E 002°39'0 0.0
2017-Oct-13 19:26N 39°34' E 002°39'0 0.0
2017-Oct-13 18:59N 39°34' E 002°39'0 0.0
2017-Oct-13 18:29N 39°34' E 002°39'0 0.0
2017-Oct-13 17:56N 39°34' E 002°39'0 0.0
2017-Oct-13 17:29N 39°34' E 002°39'0 0.0
2017-Oct-13 16:59N 39°34' E 002°39'0 0.0
2017-Oct-13 16:29N 39°34' E 002°39'0 0.0
2017-Oct-13 15:59N 39°34' E 002°39'2 5.1
2017-Oct-13 15:30N 39°32' E 002°38'4 6.9
2017-Oct-13 14:59N 39°29' E 002°34'60 2.0
2017-Oct-12 09:09N 38°55' E 001°31'1 2.3
2017-Oct-12 08:55N 38°54' E 001°30'2 5.9
2017-Oct-12 08:30N 38°54' E 001°27'1 2.1
2017-Oct-12 08:00N 38°55' E 001°27'0 0.0
2017-Oct-12 07:30N 38°55' E 001°27'0 0.0
2017-Oct-12 07:00N 38°55' E 001°27'0 0.0
2017-Oct-12 06:30N 38°55' E 001°27'0 0.0
2017-Oct-12 06:00N 38°55' E 001°27'0 0.0
2017-Oct-12 05:26N 38°55' E 001°27'0 0.0
2017-Oct-12 04:58N 38°55' E 001°27'0 0.0
2017-Oct-12 04:29N 38°55' E 001°27'0 0.0
2017-Oct-12 03:59N 38°55' E 001°27'0 0.0
2017-Oct-12 03:29N 38°55' E 001°27'0 0.0
2017-Oct-12 03:00N 38°55' E 001°27'0 0.0
2017-Oct-12 02:30N 38°55' E 001°27'0 0.0
2017-Oct-12 02:01N 38°55' E 001°27'0 0.0
2017-Oct-12 01:28N 38°55' E 001°27'0 0.0
2017-Oct-12 00:58N 38°55' E 001°27'0 0.0
2017-Oct-12 00:28N 38°55' E 001°27'0 0.0
2017-Oct-11 23:55N 38°55' E 001°27'0 0.0
2017-Oct-11 23:28N 38°55' E 001°27'0 0.0
2017-Oct-11 23:01N 38°55' E 001°27'0 0.0
2017-Oct-11 22:30N 38°55' E 001°27'0 0.0
2017-Oct-11 22:00N 38°55' E 001°27'0 0.0
2017-Oct-11 21:28N 38°55' E 001°27'0 0.0
2017-Oct-11 20:53N 38°55' E 001°27'0 0.0
2017-Oct-11 20:29N 38°55' E 001°27'0 0.0
2017-Oct-11 19:58N 38°55' E 001°27'0 0.0
2017-Oct-11 19:28N 38°55' E 001°27'0 0.0
2017-Oct-11 19:00N 38°55' E 001°27'0 0.0
2017-Oct-11 18:30N 38°55' E 001°27'0 0.0
2017-Oct-11 18:00N 38°55' E 001°27'0 0.0
2017-Oct-11 17:30N 38°55' E 001°27'0 0.0
2017-Oct-11 17:00N 38°55' E 001°27'  
Track history (hours):
 
Tides and Currents Weather Stations Pressure Air Temp Water Temp Dewpoint Dewpoint Depression Visibility Wind Speed Wind Dir Waves Ship Positions

La Grace

Last reported at 2017-Oct-19 05:01 UTC. Time now 2017-Oct-19 05:42 UTC.
Position N 38°54' E 001°26'.

Length 23 m.

Type: Sailing vessel. MMSI: 270467000.

Date/timePositionNaut miles runAvg speedWind from/ knotsBaromVisibWave heightAir tempDewpointWater temp
2017-Oct-19 05:01N 38°54' E 001°26'0 0.0
2017-Oct-19 01:08N 38°54' E 001°26'1 5.5
2017-Oct-19 01:00N 38°53' E 001°26'  
2017-Oct-16 06:49N 39°27' E 002°30'1 3.4
2017-Oct-16 06:27N 39°27' E 002°32'1 2.9
2017-Oct-16 06:00N 39°28' E 002°33'1 3.0
2017-Oct-16 05:30N 39°30' E 002°33'1 0.1
2017-Oct-15 14:39N 39°31' E 002°33'4 6.4
2017-Oct-15 14:00N 39°32' E 002°38'2 4.0
2017-Oct-15 13:30N 39°33' E 002°40'0 0.0
2017-Oct-15 13:00N 39°33' E 002°40'0 0.0
2017-Oct-15 12:30N 39°33' E 002°40'0 0.0
2017-Oct-15 12:00N 39°33' E 002°40'0 0.1
2017-Oct-15 11:30N 39°33' E 002°40'0 0.0
2017-Oct-15 11:00N 39°33' E 002°40'0 0.0
2017-Oct-15 10:30N 39°33' E 002°40'0 0.0
2017-Oct-15 10:00N 39°33' E 002°40'0 0.0
2017-Oct-15 09:30N 39°33' E 002°40'0 0.0
2017-Oct-15 09:00N 39°33' E 002°40'0 0.0
2017-Oct-15 08:30N 39°33' E 002°40'1 1.6
2017-Oct-15 08:00N 39°34' E 002°39'0 0.0
2017-Oct-15 07:30N 39°34' E 002°39'0 0.0
2017-Oct-15 07:00N 39°34' E 002°39'0 0.0
2017-Oct-15 06:27N 39°34' E 002°39'0 0.0
2017-Oct-15 06:00N 39°34' E 002°39'0 0.0
2017-Oct-15 05:30N 39°34' E 002°39'0 0.0
2017-Oct-15 04:59N 39°34' E 002°39'0 0.0
2017-Oct-15 04:29N 39°34' E 002°39'0 0.0
2017-Oct-15 03:59N 39°34' E 002°39'0 0.0
2017-Oct-15 03:29N 39°34' E 002°39'0 0.0
2017-Oct-15 02:59N 39°34' E 002°39'0 0.0
2017-Oct-15 02:29N 39°34' E 002°39'0 0.0
2017-Oct-15 01:59N 39°34' E 002°39'0 0.0
2017-Oct-15 01:29N 39°34' E 002°39'0 0.0
2017-Oct-15 00:59N 39°34' E 002°39'0 0.0
2017-Oct-15 00:28N 39°34' E 002°39'0 0.0
2017-Oct-14 23:58N 39°34' E 002°39'0 0.0
2017-Oct-14 23:28N 39°34' E 002°39'0 0.0
2017-Oct-14 22:58N 39°34' E 002°39'0 0.0
2017-Oct-14 22:28N 39°34' E 002°39'0 0.0
2017-Oct-14 21:58N 39°34' E 002°39'0 0.0
2017-Oct-14 21:28N 39°34' E 002°39'0 0.0
2017-Oct-14 20:58N 39°34' E 002°39'0 0.0
2017-Oct-14 20:30N 39°34' E 002°39'0 0.0
2017-Oct-14 20:00N 39°34' E 002°39'0 0.0
2017-Oct-14 19:30N 39°34' E 002°39'0 0.0
2017-Oct-14 19:00N 39°34' E 002°39'0 0.0
2017-Oct-14 18:30N 39°34' E 002°39'0 0.0
2017-Oct-14 18:00N 39°34' E 002°39'0 0.0
2017-Oct-14 17:30N 39°34' E 002°39'0 0.0
2017-Oct-14 16:59N 39°34' E 002°39'0 0.0
2017-Oct-14 16:30N 39°34' E 002°39'0 0.0
2017-Oct-14 15:59N 39°34' E 002°39'0 0.0
2017-Oct-14 15:26N 39°34' E 002°39'0 0.0
2017-Oct-14 14:59N 39°34' E 002°39'0 0.0
2017-Oct-14 14:29N 39°34' E 002°39'0 0.0
2017-Oct-14 13:59N 39°34' E 002°39'0 0.0
2017-Oct-14 13:29N 39°34' E 002°39'0 0.0
2017-Oct-14 12:59N 39°34' E 002°39'0 0.0
2017-Oct-14 12:29N 39°34' E 002°39'0 0.0
2017-Oct-14 11:59N 39°34' E 002°39'0 0.0
2017-Oct-14 11:29N 39°34' E 002°39'0 0.0
2017-Oct-14 10:59N 39°34' E 002°39'0 0.0
2017-Oct-14 10:29N 39°34' E 002°39'0 0.0
2017-Oct-14 09:59N 39°34' E 002°39'0 0.0
2017-Oct-14 09:29N 39°34' E 002°39'0 0.0
2017-Oct-14 08:59N 39°34' E 002°39'0 0.0
2017-Oct-14 08:29N 39°34' E 002°39'0 0.0
2017-Oct-14 07:59N 39°34' E 002°39'0 0.0
2017-Oct-14 07:29N 39°34' E 002°39'0 0.0
2017-Oct-14 06:59N 39°34' E 002°39'0 0.0
2017-Oct-14 06:29N 39°34' E 002°39'0 0.0
2017-Oct-14 05:59N 39°34' E 002°39'0 0.0
2017-Oct-14 05:29N 39°34' E 002°39'0 0.0
2017-Oct-14 04:59N 39°34' E 002°39'0 0.0
2017-Oct-14 04:29N 39°34' E 002°39'0 0.0
2017-Oct-14 03:59N 39°34' E 002°39'0 0.0
2017-Oct-14 03:29N 39°34' E 002°39'0 0.0
2017-Oct-14 02:59N 39°34' E 002°39'0 0.0
2017-Oct-14 02:29N 39°34' E 002°39'0 0.0
2017-Oct-14 01:59N 39°34' E 002°39'0 0.0
2017-Oct-14 01:29N 39°34' E 002°39'0 0.0
2017-Oct-14 00:59N 39°34' E 002°39'0 0.0
2017-Oct-14 00:29N 39°34' E 002°39'0 0.0
2017-Oct-13 23:59N 39°34' E 002°39'0 0.0
2017-Oct-13 23:29N 39°34' E 002°39'0 0.0
2017-Oct-13 22:59N 39°34' E 002°39'0 0.0
2017-Oct-13 22:29N 39°34' E 002°39'0 0.0
2017-Oct-13 21:59N 39°34' E 002°39'0 0.0
2017-Oct-13 21:29N 39°34' E 002°39'0 0.0
2017-Oct-13 20:59N 39°34' E 002°39'0 0.0
2017-Oct-13 20:29N 39°34' E 002°39'0 0.0
2017-Oct-13 19:59N 39°34' E 002°39'0 0.0
2017-Oct-13 19:26N 39°34' E 002°39'0 0.0
2017-Oct-13 18:59N 39°34' E 002°39'0 0.0
2017-Oct-13 18:29N 39°34' E 002°39'0 0.0
2017-Oct-13 17:56N 39°34' E 002°39'0 0.0
2017-Oct-13 17:29N 39°34' E 002°39'0 0.0
2017-Oct-13 16:59N 39°34' E 002°39'0 0.0
2017-Oct-13 16:29N 39°34' E 002°39'0 0.0
2017-Oct-13 15:59N 39°34' E 002°39'2 5.1
2017-Oct-13 15:30N 39°32' E 002°38'4 6.9
2017-Oct-13 14:59N 39°29' E 002°34'60 2.0
2017-Oct-12 09:09N 38°55' E 001°31'1 2.3
2017-Oct-12 08:55N 38°54' E 001°30'2 5.9
2017-Oct-12 08:30N 38°54' E 001°27'1 2.1
2017-Oct-12 08:00N 38°55' E 001°27'0 0.0
2017-Oct-12 07:30N 38°55' E 001°27'0 0.0
2017-Oct-12 07:00N 38°55' E 001°27'0 0.0
2017-Oct-12 06:30N 38°55' E 001°27'0 0.0
2017-Oct-12 06:00N 38°55' E 001°27'0 0.0
2017-Oct-12 05:26N 38°55' E 001°27'0 0.0
2017-Oct-12 04:58N 38°55' E 001°27'0 0.0
2017-Oct-12 04:29N 38°55' E 001°27'0 0.0
2017-Oct-12 03:59N 38°55' E 001°27'0 0.0
2017-Oct-12 03:29N 38°55' E 001°27'0 0.0
2017-Oct-12 03:00N 38°55' E 001°27'0 0.0
2017-Oct-12 02:30N 38°55' E 001°27'0 0.0
2017-Oct-12 02:01N 38°55' E 001°27'0 0.0
2017-Oct-12 01:28N 38°55' E 001°27'0 0.0
2017-Oct-12 00:58N 38°55' E 001°27'0 0.0
2017-Oct-12 00:28N 38°55' E 001°27'0 0.0
2017-Oct-11 23:55N 38°55' E 001°27'0 0.0
2017-Oct-11 23:28N 38°55' E 001°27'0 0.0
2017-Oct-11 23:01N 38°55' E 001°27'0 0.0
2017-Oct-11 22:30N 38°55' E 001°27'0 0.0
2017-Oct-11 22:00N 38°55' E 001°27'0 0.0
2017-Oct-11 21:28N 38°55' E 001°27'0 0.0
2017-Oct-11 20:53N 38°55' E 001°27'0 0.0
2017-Oct-11 20:29N 38°55' E 001°27'0 0.0
2017-Oct-11 19:58N 38°55' E 001°27'0 0.0
2017-Oct-11 19:28N 38°55' E 001°27'0 0.0
2017-Oct-11 19:00N 38°55' E 001°27'0 0.0
2017-Oct-11 18:30N 38°55' E 001°27'0 0.0
2017-Oct-11 18:00N 38°55' E 001°27'0 0.0
2017-Oct-11 17:30N 38°55' E 001°27'0 0.0
2017-Oct-11 17:00N 38°55' E 001°27'  

Dump ship's entire track history